sensor_id;sensor_type;location;lat;lon;timestamp;temperature;humidity
13433;DHT22;6789;47.678;9.158;2023-04-22T00:04:40;10.70;99.90
13433;DHT22;6789;47.678;9.158;2023-04-22T00:09:37;10.60;99.90
13433;DHT22;6789;47.678;9.158;2023-04-22T00:14:29;10.40;99.90
13433;DHT22;6789;47.678;9.158;2023-04-22T00:19:21;10.30;99.90
13433;DHT22;6789;47.678;9.158;2023-04-22T00:24:13;10.30;99.90
13433;DHT22;6789;47.678;9.158;2023-04-22T00:29:05;10.30;99.90
13433;DHT22;6789;47.678;9.158;2023-04-22T00:33:57;10.20;99.90
13433;DHT22;6789;47.678;9.158;2023-04-22T00:38:49;10.10;99.90
13433;DHT22;6789;47.678;9.158;2023-04-22T00:43:43;10.10;99.90
13433;DHT22;6789;47.678;9.158;2023-04-22T00:48:37;10.00;99.90
13433;DHT22;6789;47.678;9.158;2023-04-22T00:53:29;10.00;99.90
13433;DHT22;6789;47.678;9.158;2023-04-22T00:58:22;10.00;99.90
13433;DHT22;6789;47.678;9.158;2023-04-22T01:03:18;10.00;99.90
13433;DHT22;6789;47.678;9.158;2023-04-22T01:08:11;9.90;99.90
13433;DHT22;6789;47.678;9.158;2023-04-22T01:13:03;9.70;99.90
13433;DHT22;6789;47.678;9.158;2023-04-22T01:17:55;9.60;99.90
13433;DHT22;6789;47.678;9.158;2023-04-22T01:22:47;9.60;99.90
13433;DHT22;6789;47.678;9.158;2023-04-22T01:27:41;9.50;99.90
13433;DHT22;6789;47.678;9.158;2023-04-22T01:32:33;9.50;99.90
13433;DHT22;6789;47.678;9.158;2023-04-22T01:37:25;9.50;99.90
13433;DHT22;6789;47.678;9.158;2023-04-22T01:42:18;9.40;99.90
13433;DHT22;6789;47.678;9.158;2023-04-22T01:47:10;9.30;99.90
13433;DHT22;6789;47.678;9.158;2023-04-22T01:52:02;9.20;99.90
13433;DHT22;6789;47.678;9.158;2023-04-22T01:56:55;9.20;99.90
13433;DHT22;6789;47.678;9.158;2023-04-22T02:01:48;9.30;99.90
13433;DHT22;6789;47.678;9.158;2023-04-22T02:06:40;9.30;99.90
13433;DHT22;6789;47.678;9.158;2023-04-22T02:11:32;9.10;99.90
13433;DHT22;6789;47.678;9.158;2023-04-22T02:16:24;9.00;99.90
13433;DHT22;6789;47.678;9.158;2023-04-22T02:21:16;8.90;99.90
13433;DHT22;6789;47.678;9.158;2023-04-22T02:26:15;9.00;99.90
13433;DHT22;6789;47.678;9.158;2023-04-22T02:31:07;9.20;99.90
13433;DHT22;6789;47.678;9.158;2023-04-22T02:35:58;9.10;99.90
13433;DHT22;6789;47.678;9.158;2023-04-22T02:40:50;9.00;99.90
13433;DHT22;6789;47.678;9.158;2023-04-22T02:45:42;8.80;99.90
13433;DHT22;6789;47.678;9.158;2023-04-22T02:50:33;8.70;99.90
13433;DHT22;6789;47.678;9.158;2023-04-22T02:55:26;8.60;99.90
13433;DHT22;6789;47.678;9.158;2023-04-22T03:00:18;8.60;99.90
13433;DHT22;6789;47.678;9.158;2023-04-22T03:05:09;8.50;99.90
13433;DHT22;6789;47.678;9.158;2023-04-22T03:10:02;8.50;99.90
13433;DHT22;6789;47.678;9.158;2023-04-22T03:14:54;8.40;99.90
13433;DHT22;6789;47.678;9.158;2023-04-22T03:19:46;8.40;99.90
13433;DHT22;6789;47.678;9.158;2023-04-22T03:24:38;8.40;99.90
13433;DHT22;6789;47.678;9.158;2023-04-22T03:29:29;8.30;99.90
13433;DHT22;6789;47.678;9.158;2023-04-22T03:34:21;8.30;99.90
13433;DHT22;6789;47.678;9.158;2023-04-22T03:39:13;8.30;99.90
13433;DHT22;6789;47.678;9.158;2023-04-22T03:44:05;8.30;99.90
13433;DHT22;6789;47.678;9.158;2023-04-22T03:48:57;8.30;99.90
13433;DHT22;6789;47.678;9.158;2023-04-22T03:53:48;8.20;99.90
13433;DHT22;6789;47.678;9.158;2023-04-22T03:58:40;8.10;99.90
13433;DHT22;6789;47.678;9.158;2023-04-22T04:03:32;8.20;99.90
13433;DHT22;6789;47.678;9.158;2023-04-22T04:08:24;8.10;99.90
13433;DHT22;6789;47.678;9.158;2023-04-22T04:13:17;7.90;99.90
13433;DHT22;6789;47.678;9.158;2023-04-22T04:18:08;7.90;99.90
13433;DHT22;6789;47.678;9.158;2023-04-22T04:23:01;8.00;99.90
13433;DHT22;6789;47.678;9.158;2023-04-22T04:27:53;8.10;99.90
13433;DHT22;6789;47.678;9.158;2023-04-22T04:32:45;8.10;99.90
13433;DHT22;6789;47.678;9.158;2023-04-22T04:37:37;8.20;99.90
13433;DHT22;6789;47.678;9.158;2023-04-22T04:42:30;8.20;99.90
13433;DHT22;6789;47.678;9.158;2023-04-22T04:47:24;8.10;99.90
13433;DHT22;6789;47.678;9.158;2023-04-22T04:52:15;8.20;99.90
13433;DHT22;6789;47.678;9.158;2023-04-22T04:57:07;8.10;99.90
13433;DHT22;6789;47.678;9.158;2023-04-22T05:02:00;8.10;99.90
13433;DHT22;6789;47.678;9.158;2023-04-22T05:06:52;8.40;99.90
13433;DHT22;6789;47.678;9.158;2023-04-22T05:11:44;8.60;99.90
13433;DHT22;6789;47.678;9.158;2023-04-22T05:16:36;8.70;99.90
13433;DHT22;6789;47.678;9.158;2023-04-22T05:21:27;8.90;99.90
13433;DHT22;6789;47.678;9.158;2023-04-22T05:26:19;9.00;99.90
13433;DHT22;6789;47.678;9.158;2023-04-22T05:31:11;9.30;99.90
13433;DHT22;6789;47.678;9.158;2023-04-22T05:36:03;9.50;99.90
13433;DHT22;6789;47.678;9.158;2023-04-22T05:41:11;10.00;99.90
13433;DHT22;6789;47.678;9.158;2023-04-22T05:46:12;10.40;99.90
13433;DHT22;6789;47.678;9.158;2023-04-22T05:51:04;10.50;99.90
13433;DHT22;6789;47.678;9.158;2023-04-22T05:55:56;10.70;99.90
13433;DHT22;6789;47.678;9.158;2023-04-22T06:00:48;11.00;99.90
13433;DHT22;6789;47.678;9.158;2023-04-22T06:05:40;11.20;99.90
13433;DHT22;6789;47.678;9.158;2023-04-22T06:10:32;11.50;99.90
13433;DHT22;6789;47.678;9.158;2023-04-22T06:15:25;11.70;99.90
13433;DHT22;6789;47.678;9.158;2023-04-22T06:20:16;11.60;99.90
13433;DHT22;6789;47.678;9.158;2023-04-22T06:25:08;11.90;99.90
13433;DHT22;6789;47.678;9.158;2023-04-22T06:30:00;12.00;99.90
13433;DHT22;6789;47.678;9.158;2023-04-22T06:34:52;12.20;99.90
13433;DHT22;6789;47.678;9.158;2023-04-22T06:39:45;12.20;99.90
13433;DHT22;6789;47.678;9.158;2023-04-22T06:44:36;12.40;99.90
13433;DHT22;6789;47.678;9.158;2023-04-22T06:49:29;12.60;99.90
13433;DHT22;6789;47.678;9.158;2023-04-22T06:54:20;12.90;99.90
13433;DHT22;6789;47.678;9.158;2023-04-22T06:59:12;13.20;99.90
13433;DHT22;6789;47.678;9.158;2023-04-22T07:04:04;13.50;99.90
13433;DHT22;6789;47.678;9.158;2023-04-22T07:08:57;13.90;99.90
13433;DHT22;6789;47.678;9.158;2023-04-22T07:13:49;13.80;99.90
13433;DHT22;6789;47.678;9.158;2023-04-22T07:18:41;13.60;99.90
13433;DHT22;6789;47.678;9.158;2023-04-22T07:23:33;13.50;99.90
13433;DHT22;6789;47.678;9.158;2023-04-22T07:28:24;13.50;99.90
13433;DHT22;6789;47.678;9.158;2023-04-22T07:33:16;13.40;99.90
13433;DHT22;6789;47.678;9.158;2023-04-22T07:38:08;13.30;99.90
13433;DHT22;6789;47.678;9.158;2023-04-22T07:43:01;13.50;99.90
13433;DHT22;6789;47.678;9.158;2023-04-22T07:47:53;13.90;99.90
13433;DHT22;6789;47.678;9.158;2023-04-22T07:52:45;14.20;99.90
13433;DHT22;6789;47.678;9.158;2023-04-22T07:57:36;14.30;99.90
13433;DHT22;6789;47.678;9.158;2023-04-22T08:02:30;14.30;99.90
13433;DHT22;6789;47.678;9.158;2023-04-22T08:07:22;14.50;99.90
13433;DHT22;6789;47.678;9.158;2023-04-22T08:12:16;14.80;99.90
13433;DHT22;6789;47.678;9.158;2023-04-22T08:17:08;14.80;99.90
13433;DHT22;6789;47.678;9.158;2023-04-22T08:22:00;15.10;99.90
13433;DHT22;6789;47.678;9.158;2023-04-22T08:26:52;15.00;99.90
13433;DHT22;6789;47.678;9.158;2023-04-22T08:31:45;15.10;99.90
13433;DHT22;6789;47.678;9.158;2023-04-22T08:36:37;15.30;99.90
13433;DHT22;6789;47.678;9.158;2023-04-22T08:41:29;15.70;99.90
13433;DHT22;6789;47.678;9.158;2023-04-22T08:46:26;16.10;99.90
13433;DHT22;6789;47.678;9.158;2023-04-22T08:51:19;16.30;99.90
13433;DHT22;6789;47.678;9.158;2023-04-22T08:56:13;16.50;99.90
13433;DHT22;6789;47.678;9.158;2023-04-22T09:01:06;16.80;99.90
13433;DHT22;6789;47.678;9.158;2023-04-22T09:06:01;16.60;99.90
13433;DHT22;6789;47.678;9.158;2023-04-22T09:10:54;16.50;99.90
13433;DHT22;6789;47.678;9.158;2023-04-22T09:15:46;16.50;99.90
13433;DHT22;6789;47.678;9.158;2023-04-22T09:20:41;16.90;99.90
13433;DHT22;6789;47.678;9.158;2023-04-22T09:25:33;17.00;99.90
13433;DHT22;6789;47.678;9.158;2023-04-22T09:30:32;16.80;99.90
13433;DHT22;6789;47.678;9.158;2023-04-22T09:35:29;17.00;99.90
13433;DHT22;6789;47.678;9.158;2023-04-22T09:40:24;17.20;99.90
13433;DHT22;6789;47.678;9.158;2023-04-22T09:45:26;17.20;99.90
13433;DHT22;6789;47.678;9.158;2023-04-22T09:50:26;17.30;99.90
13433;DHT22;6789;47.678;9.158;2023-04-22T09:55:21;17.40;99.90
13433;DHT22;6789;47.678;9.158;2023-04-22T10:00:16;17.80;99.90
13433;DHT22;6789;47.678;9.158;2023-04-22T10:05:09;17.60;99.90
13433;DHT22;6789;47.678;9.158;2023-04-22T10:10:03;17.70;99.90
13433;DHT22;6789;47.678;9.158;2023-04-22T10:15:10;18.10;99.90
13433;DHT22;6789;47.678;9.158;2023-04-22T10:20:05;18.50;99.90
13433;DHT22;6789;47.678;9.158;2023-04-22T10:25:04;18.60;99.90
13433;DHT22;6789;47.678;9.158;2023-04-22T10:29:56;18.50;99.90
13433;DHT22;6789;47.678;9.158;2023-04-22T10:34:48;18.40;99.90
13433;DHT22;6789;47.678;9.158;2023-04-22T10:39:42;18.70;99.90
13433;DHT22;6789;47.678;9.158;2023-04-22T10:45:11;18.80;99.90
13433;DHT22;6789;47.678;9.158;2023-04-22T10:50:11;19.40;99.90
13433;DHT22;6789;47.678;9.158;2023-04-22T10:55:11;19.70;99.90
13433;DHT22;6789;47.678;9.158;2023-04-22T11:00:28;19.90;99.90
13433;DHT22;6789;47.678;9.158;2023-04-22T11:05:44;19.90;99.90
13433;DHT22;6789;47.678;9.158;2023-04-22T11:10:43;19.90;99.90
13433;DHT22;6789;47.678;9.158;2023-04-22T11:15:38;19.90;99.90
13433;DHT22;6789;47.678;9.158;2023-04-22T11:20:31;20.20;99.90
13433;DHT22;6789;47.678;9.158;2023-04-22T11:25:24;20.10;99.90
13433;DHT22;6789;47.678;9.158;2023-04-22T11:30:21;20.20;99.90
13433;DHT22;6789;47.678;9.158;2023-04-22T11:35:17;20.20;99.90
13433;DHT22;6789;47.678;9.158;2023-04-22T11:40:15;20.80;99.90
13433;DHT22;6789;47.678;9.158;2023-04-22T11:45:22;20.90;99.90
13433;DHT22;6789;47.678;9.158;2023-04-22T11:50:17;20.80;99.90
13433;DHT22;6789;47.678;9.158;2023-04-22T12:00:14;21.30;99.90
13433;DHT22;6789;47.678;9.158;2023-04-22T12:05:11;21.40;99.90
13433;DHT22;6789;47.678;9.158;2023-04-22T12:10:04;20.80;99.90
13433;DHT22;6789;47.678;9.158;2023-04-22T12:15:06;20.60;99.90
13433;DHT22;6789;47.678;9.158;2023-04-22T12:20:04;20.90;99.90
13433;DHT22;6789;47.678;9.158;2023-04-22T12:25:16;21.30;99.90
13433;DHT22;6789;47.678;9.158;2023-04-22T12:30:23;21.10;99.90
13433;DHT22;6789;47.678;9.158;2023-04-22T12:35:15;21.30;99.90
13433;DHT22;6789;47.678;9.158;2023-04-22T12:40:08;21.30;99.90
13433;DHT22;6789;47.678;9.158;2023-04-22T12:45:01;21.40;99.90
13433;DHT22;6789;47.678;9.158;2023-04-22T12:49:53;21.20;99.90
13433;DHT22;6789;47.678;9.158;2023-04-22T12:54:53;21.30;99.90
13433;DHT22;6789;47.678;9.158;2023-04-22T12:59:45;21.20;99.90
13433;DHT22;6789;47.678;9.158;2023-04-22T13:04:51;21.10;99.90
13433;DHT22;6789;47.678;9.158;2023-04-22T13:09:43;21.00;99.90
13433;DHT22;6789;47.678;9.158;2023-04-22T13:14:35;21.20;99.90
13433;DHT22;6789;47.678;9.158;2023-04-22T13:19:27;21.20;99.90
13433;DHT22;6789;47.678;9.158;2023-04-22T13:24:19;21.40;99.90
13433;DHT22;6789;47.678;9.158;2023-04-22T13:29:11;21.40;99.90
13433;DHT22;6789;47.678;9.158;2023-04-22T13:34:04;21.50;99.90
13433;DHT22;6789;47.678;9.158;2023-04-22T13:38:56;21.60;99.90
13433;DHT22;6789;47.678;9.158;2023-04-22T13:43:48;21.40;99.90
13433;DHT22;6789;47.678;9.158;2023-04-22T13:48:44;21.70;99.90
13433;DHT22;6789;47.678;9.158;2023-04-22T13:53:44;21.90;99.90
13433;DHT22;6789;47.678;9.158;2023-04-22T13:58:39;22.00;99.90
13433;DHT22;6789;47.678;9.158;2023-04-22T14:03:40;21.90;99.90
13433;DHT22;6789;47.678;9.158;2023-04-22T14:08:32;22.00;99.90
13433;DHT22;6789;47.678;9.158;2023-04-22T14:13:26;22.10;99.90
13433;DHT22;6789;47.678;9.158;2023-04-22T14:18:19;22.10;99.90
13433;DHT22;6789;47.678;9.158;2023-04-22T14:23:14;22.00;99.90
13433;DHT22;6789;47.678;9.158;2023-04-22T14:28:06;21.80;99.90
13433;DHT22;6789;47.678;9.158;2023-04-22T14:32:58;21.80;99.90
13433;DHT22;6789;47.678;9.158;2023-04-22T14:37:51;21.80;99.90
13433;DHT22;6789;47.678;9.158;2023-04-22T14:42:43;21.50;99.90
13433;DHT22;6789;47.678;9.158;2023-04-22T14:47:35;21.30;99.90
13433;DHT22;6789;47.678;9.158;2023-04-22T14:52:26;21.10;99.90
13433;DHT22;6789;47.678;9.158;2023-04-22T14:57:18;20.90;99.90
13433;DHT22;6789;47.678;9.158;2023-04-22T15:02:12;20.70;99.90
13433;DHT22;6789;47.678;9.158;2023-04-22T15:07:08;20.50;99.90
13433;DHT22;6789;47.678;9.158;2023-04-22T15:12:00;20.30;99.90
13433;DHT22;6789;47.678;9.158;2023-04-22T15:16:55;20.10;99.90
13433;DHT22;6789;47.678;9.158;2023-04-22T15:21:47;20.00;99.90
13433;DHT22;6789;47.678;9.158;2023-04-22T15:26:39;19.70;99.90
13433;DHT22;6789;47.678;9.158;2023-04-22T15:31:31;19.50;99.90
13433;DHT22;6789;47.678;9.158;2023-04-22T15:36:37;19.30;99.90
13433;DHT22;6789;47.678;9.158;2023-04-22T15:41:29;18.80;99.90
13433;DHT22;6789;47.678;9.158;2023-04-22T15:46:21;18.70;99.90
13433;DHT22;6789;47.678;9.158;2023-04-22T15:51:17;18.60;99.90
13433;DHT22;6789;47.678;9.158;2023-04-22T15:56:11;18.40;99.90
13433;DHT22;6789;47.678;9.158;2023-04-22T16:01:07;18.20;99.90
13433;DHT22;6789;47.678;9.158;2023-04-22T16:06:10;18.10;99.90
13433;DHT22;6789;47.678;9.158;2023-04-22T16:11:01;17.90;99.90
13433;DHT22;6789;47.678;9.158;2023-04-22T16:15:55;17.80;99.90
13433;DHT22;6789;47.678;9.158;2023-04-22T16:20:48;17.70;99.90
13433;DHT22;6789;47.678;9.158;2023-04-22T16:25:40;17.60;99.90
13433;DHT22;6789;47.678;9.158;2023-04-22T16:30:32;17.70;99.90
13433;DHT22;6789;47.678;9.158;2023-04-22T16:35:24;17.40;99.90
13433;DHT22;6789;47.678;9.158;2023-04-22T16:40:31;17.40;99.90
13433;DHT22;6789;47.678;9.158;2023-04-22T16:45:37;17.30;99.90
13433;DHT22;6789;47.678;9.158;2023-04-22T16:50:30;17.30;99.90
13433;DHT22;6789;47.678;9.158;2023-04-22T16:55:36;17.20;99.90
13433;DHT22;6789;47.678;9.158;2023-04-22T17:00:58;17.00;99.90
13433;DHT22;6789;47.678;9.158;2023-04-22T17:05:59;17.00;99.90
13433;DHT22;6789;47.678;9.158;2023-04-22T17:10:50;17.00;99.90
13433;DHT22;6789;47.678;9.158;2023-04-22T17:15:43;17.10;99.90
13433;DHT22;6789;47.678;9.158;2023-04-22T17:20:35;17.10;99.90
13433;DHT22;6789;47.678;9.158;2023-04-22T17:25:28;16.90;99.90
13433;DHT22;6789;47.678;9.158;2023-04-22T17:30:20;16.70;99.90
13433;DHT22;6789;47.678;9.158;2023-04-22T17:35:12;16.70;99.90
13433;DHT22;6789;47.678;9.158;2023-04-22T17:40:06;16.60;99.90
13433;DHT22;6789;47.678;9.158;2023-04-22T17:44:58;16.70;99.90
13433;DHT22;6789;47.678;9.158;2023-04-22T17:50:05;16.70;99.90
13433;DHT22;6789;47.678;9.158;2023-04-22T17:54:57;16.70;99.90
13433;DHT22;6789;47.678;9.158;2023-04-22T17:59:50;16.60;99.90
13433;DHT22;6789;47.678;9.158;2023-04-22T18:04:42;16.40;99.90
13433;DHT22;6789;47.678;9.158;2023-04-22T18:09:35;16.40;99.90
13433;DHT22;6789;47.678;9.158;2023-04-22T18:14:28;16.30;99.90
13433;DHT22;6789;47.678;9.158;2023-04-22T18:19:20;16.20;99.90
13433;DHT22;6789;47.678;9.158;2023-04-22T18:24:13;16.20;99.90
13433;DHT22;6789;47.678;9.158;2023-04-22T18:29:05;16.20;99.90
13433;DHT22;6789;47.678;9.158;2023-04-22T18:33:59;16.10;99.90
13433;DHT22;6789;47.678;9.158;2023-04-22T18:38:51;16.00;99.90
13433;DHT22;6789;47.678;9.158;2023-04-22T18:43:42;16.00;99.90
13433;DHT22;6789;47.678;9.158;2023-04-22T18:48:34;15.90;99.90
13433;DHT22;6789;47.678;9.158;2023-04-22T18:53:28;15.80;99.90
13433;DHT22;6789;47.678;9.158;2023-04-22T18:58:19;15.80;99.90
13433;DHT22;6789;47.678;9.158;2023-04-22T19:03:13;15.70;99.90
13433;DHT22;6789;47.678;9.158;2023-04-22T19:08:07;15.70;99.90
13433;DHT22;6789;47.678;9.158;2023-04-22T19:12:59;15.60;99.90
13433;DHT22;6789;47.678;9.158;2023-04-22T19:17:51;15.60;99.90
13433;DHT22;6789;47.678;9.158;2023-04-22T19:22:43;15.60;99.90
13433;DHT22;6789;47.678;9.158;2023-04-22T19:27:35;15.50;99.90
13433;DHT22;6789;47.678;9.158;2023-04-22T19:32:26;15.50;99.90
13433;DHT22;6789;47.678;9.158;2023-04-22T19:37:19;15.60;99.90
13433;DHT22;6789;47.678;9.158;2023-04-22T19:42:12;15.60;99.90
13433;DHT22;6789;47.678;9.158;2023-04-22T19:47:04;15.60;99.90
13433;DHT22;6789;47.678;9.158;2023-04-22T19:51:55;15.40;99.90
13433;DHT22;6789;47.678;9.158;2023-04-22T19:56:48;15.40;99.90
13433;DHT22;6789;47.678;9.158;2023-04-22T20:01:55;15.30;99.90
13433;DHT22;6789;47.678;9.158;2023-04-22T20:06:49;15.30;99.90
13433;DHT22;6789;47.678;9.158;2023-04-22T20:11:43;15.30;99.90
13433;DHT22;6789;47.678;9.158;2023-04-22T20:16:35;15.20;99.90
13433;DHT22;6789;47.678;9.158;2023-04-22T20:21:29;15.20;99.90
13433;DHT22;6789;47.678;9.158;2023-04-22T20:26:26;15.20;99.90
13433;DHT22;6789;47.678;9.158;2023-04-22T20:31:32;14.90;99.90
13433;DHT22;6789;47.678;9.158;2023-04-22T20:36:41;14.90;99.90
13433;DHT22;6789;47.678;9.158;2023-04-22T20:41:36;14.90;99.90
13433;DHT22;6789;47.678;9.158;2023-04-22T20:46:30;14.80;99.90
13433;DHT22;6789;47.678;9.158;2023-04-22T20:51:22;14.70;99.90
13433;DHT22;6789;47.678;9.158;2023-04-22T20:56:14;14.80;99.90
13433;DHT22;6789;47.678;9.158;2023-04-22T21:02:20;14.70;99.90
13433;DHT22;6789;47.678;9.158;2023-04-22T21:07:25;14.70;99.90
13433;DHT22;6789;47.678;9.158;2023-04-22T21:12:28;14.70;99.90
13433;DHT22;6789;47.678;9.158;2023-04-22T21:17:47;14.70;99.90
13433;DHT22;6789;47.678;9.158;2023-04-22T21:22:45;14.70;99.90
13433;DHT22;6789;47.678;9.158;2023-04-22T21:27:37;14.60;99.90
13433;DHT22;6789;47.678;9.158;2023-04-22T21:32:29;14.60;99.90
13433;DHT22;6789;47.678;9.158;2023-04-22T21:37:37;14.50;99.90
13433;DHT22;6789;47.678;9.158;2023-04-22T21:42:31;14.50;99.90
13433;DHT22;6789;47.678;9.158;2023-04-22T21:47:30;14.50;99.90
13433;DHT22;6789;47.678;9.158;2023-04-22T21:52:22;14.60;99.90
13433;DHT22;6789;47.678;9.158;2023-04-22T21:57:14;14.50;99.90
13433;DHT22;6789;47.678;9.158;2023-04-22T22:02:06;14.30;99.90
13433;DHT22;6789;47.678;9.158;2023-04-22T22:06:58;14.30;99.90
13433;DHT22;6789;47.678;9.158;2023-04-22T22:11:51;14.20;99.90
13433;DHT22;6789;47.678;9.158;2023-04-22T22:16:57;14.10;99.90
13433;DHT22;6789;47.678;9.158;2023-04-22T22:22:03;14.00;99.90
13433;DHT22;6789;47.678;9.158;2023-04-22T22:26:55;13.90;99.90
13433;DHT22;6789;47.678;9.158;2023-04-22T22:31:52;13.90;99.90
13433;DHT22;6789;47.678;9.158;2023-04-22T22:36:56;13.90;99.90
13433;DHT22;6789;47.678;9.158;2023-04-22T22:41:50;13.80;99.90
13433;DHT22;6789;47.678;9.158;2023-04-22T22:47:00;13.80;99.90
13433;DHT22;6789;47.678;9.158;2023-04-22T22:52:03;13.90;99.90
13433;DHT22;6789;47.678;9.158;2023-04-22T22:57:10;13.90;99.90
13433;DHT22;6789;47.678;9.158;2023-04-22T23:02:03;13.90;99.90
13433;DHT22;6789;47.678;9.158;2023-04-22T23:06:57;13.80;99.90
13433;DHT22;6789;47.678;9.158;2023-04-22T23:12:04;13.80;99.90
13433;DHT22;6789;47.678;9.158;2023-04-22T23:16:56;13.80;99.90
13433;DHT22;6789;47.678;9.158;2023-04-22T23:21:49;13.70;99.90
13433;DHT22;6789;47.678;9.158;2023-04-22T23:27:01;13.60;99.90
13433;DHT22;6789;47.678;9.158;2023-04-22T23:31:56;13.70;99.90
13433;DHT22;6789;47.678;9.158;2023-04-22T23:37:09;13.70;99.90
13433;DHT22;6789;47.678;9.158;2023-04-22T23:42:07;13.50;99.90
13433;DHT22;6789;47.678;9.158;2023-04-22T23:46:59;13.50;99.90
13433;DHT22;6789;47.678;9.158;2023-04-22T23:51:51;13.40;99.90
13433;DHT22;6789;47.678;9.158;2023-04-22T23:56:44;13.50;99.90
